Malta Bend, Missouri
Current Conditions -  °F | °C
As of 12:58 PM on Monday 20 Oct 2014 (Local Time) from KSZL Reporting Station
Clear Clear  
Wind Chill: 70°   Ceiling: Unl
Heat Index: 70°   Visibility: 10mi
Dew Point: 49°   Wind: 8mph
Humidity: 47%   Direction: 50°NE
Pressure: 30.04"   Gusts: NA
Location:  39.19°N, 93.36°W
Report Text: KSZL 201758Z 05007KT 10SM CLR 21/10 A3004 RMK AO2A SLP172 T02120096 10213 20097 58002 $
Loading
Personal Weather Stations






























Interactive Weather Map New forecast layout! Learn more

10-Day Weather Forecast

Advertisements
Track Severe Weather on mobile